sensor_id;sensor_type;location;lat;lon;timestamp;temperature;humidity
3086;DHT22;52812;48.960;9.108;2022-08-11T00:01:48;17.00;92.40
3086;DHT22;52812;48.960;9.108;2022-08-11T00:04:15;17.10;92.60
3086;DHT22;52812;48.960;9.108;2022-08-11T00:06:41;17.00;93.30
3086;DHT22;52812;48.960;9.108;2022-08-11T00:09:16;16.90;93.50
3086;DHT22;52812;48.960;9.108;2022-08-11T00:11:54;16.80;94.30
3086;DHT22;52812;48.960;9.108;2022-08-11T00:14:27;16.70;94.10
3086;DHT22;52812;48.960;9.108;2022-08-11T00:16:59;16.60;94.10
3086;DHT22;52812;48.960;9.108;2022-08-11T00:19:28;16.60;94.90
3086;DHT22;52812;48.960;9.108;2022-08-11T00:21:54;16.40;95.00
3086;DHT22;52812;48.960;9.108;2022-08-11T00:24:21;16.30;95.20
3086;DHT22;52812;48.960;9.108;2022-08-11T00:26:49;16.30;95.10
3086;DHT22;52812;48.960;9.108;2022-08-11T00:29:17;16.40;95.70
3086;DHT22;52812;48.960;9.108;2022-08-11T00:31:49;16.30;95.60
3086;DHT22;52812;48.960;9.108;2022-08-11T00:34:21;16.30;95.50
3086;DHT22;52812;48.960;9.108;2022-08-11T00:36:52;16.30;95.80
3086;DHT22;52812;48.960;9.108;2022-08-11T00:39:22;16.30;95.60
3086;DHT22;52812;48.960;9.108;2022-08-11T00:47:56;16.20;95.50
3086;DHT22;52812;48.960;9.108;2022-08-11T00:50:45;16.00;96.20
3086;DHT22;52812;48.960;9.108;2022-08-11T00:53:35;16.00;96.40
3086;DHT22;52812;48.960;9.108;2022-08-11T01:02:05;15.60;98.00
3086;DHT22;52812;48.960;9.108;2022-08-11T01:07:39;15.60;98.30
3086;DHT22;52812;48.960;9.108;2022-08-11T01:11:01;15.50;97.90
3086;DHT22;52812;48.960;9.108;2022-08-11T01:25:00;15.20;97.90
3086;DHT22;52812;48.960;9.108;2022-08-11T01:42:04;14.80;99.90
3086;DHT22;52812;48.960;9.108;2022-08-11T01:48:27;14.70;99.90
3086;DHT22;52812;48.960;9.108;2022-08-11T01:51:10;14.70;99.90
3086;DHT22;52812;48.960;9.108;2022-08-11T01:59:09;14.60;99.70
3086;DHT22;52812;48.960;9.108;2022-08-11T02:04:45;14.80;99.90
3086;DHT22;52812;48.960;9.108;2022-08-11T02:10:13;14.70;99.90
3086;DHT22;52812;48.960;9.108;2022-08-11T02:13:27;14.60;99.90
3086;DHT22;52812;48.960;9.108;2022-08-11T02:16:50;14.50;99.90
3086;DHT22;52812;48.960;9.108;2022-08-11T02:22:06;14.30;99.90
3086;DHT22;52812;48.960;9.108;2022-08-11T02:25:06;14.30;99.90
3086;DHT22;52812;48.960;9.108;2022-08-11T02:28:22;14.40;99.90
3086;DHT22;52812;48.960;9.108;2022-08-11T02:30:24;14.20;99.90
3086;DHT22;52812;48.960;9.108;2022-08-11T02:33:09;14.10;99.90
3086;DHT22;52812;48.960;9.108;2022-08-11T02:36:11;14.00;99.90
3086;DHT22;52812;48.960;9.108;2022-08-11T02:41:18;14.00;99.90
3086;DHT22;52812;48.960;9.108;2022-08-11T02:47:02;14.00;99.90
3086;DHT22;52812;48.960;9.108;2022-08-11T02:49:43;13.90;99.90
3086;DHT22;52812;48.960;9.108;2022-08-11T02:52:40;13.90;99.90
3086;DHT22;52812;48.960;9.108;2022-08-11T02:57:42;13.80;99.90
3086;DHT22;52812;48.960;9.108;2022-08-11T03:00:10;13.80;99.90
3086;DHT22;52812;48.960;9.108;2022-08-11T03:14:30;13.50;99.90
3086;DHT22;52812;48.960;9.108;2022-08-11T03:23:08;13.50;99.90
3086;DHT22;52812;48.960;9.108;2022-08-11T03:26:00;13.40;99.90
3086;DHT22;52812;48.960;9.108;2022-08-11T03:28:49;13.40;99.90
3086;DHT22;52812;48.960;9.108;2022-08-11T03:31:28;13.40;99.90
3086;DHT22;52812;48.960;9.108;2022-08-11T03:34:03;13.40;99.90
3086;DHT22;52812;48.960;9.108;2022-08-11T03:44:58;13.20;99.90
3086;DHT22;52812;48.960;9.108;2022-08-11T03:47:56;13.20;99.90
3086;DHT22;52812;48.960;9.108;2022-08-11T03:50:51;13.20;99.90
3086;DHT22;52812;48.960;9.108;2022-08-11T04:32:38;12.80;99.90
3086;DHT22;52812;48.960;9.108;2022-08-11T04:35:25;12.90;99.90
3086;DHT22;52812;48.960;9.108;2022-08-11T04:44:17;12.90;99.90
3086;DHT22;52812;48.960;9.108;2022-08-11T04:46:52;13.00;99.90
3086;DHT22;52812;48.960;9.108;2022-08-11T04:53:04;13.00;99.90
3086;DHT22;52812;48.960;9.108;2022-08-11T04:56:06;13.20;99.90
3086;DHT22;52812;48.960;9.108;2022-08-11T04:59:28;13.30;99.90
3086;DHT22;52812;48.960;9.108;2022-08-11T05:05:08;13.70;99.90
3086;DHT22;52812;48.960;9.108;2022-08-11T05:13:32;14.10;99.90
3086;DHT22;52812;48.960;9.108;2022-08-11T05:16:28;14.10;99.90
3086;DHT22;52812;48.960;9.108;2022-08-11T05:19:19;14.20;99.90
3086;DHT22;52812;48.960;9.108;2022-08-11T05:22:10;14.20;99.90
3086;DHT22;52812;48.960;9.108;2022-08-11T05:31:02;14.80;99.90
3086;DHT22;52812;48.960;9.108;2022-08-11T05:33:54;15.40;99.90
3086;DHT22;52812;48.960;9.108;2022-08-11T05:36:56;16.00;99.90
3086;DHT22;52812;48.960;9.108;2022-08-11T05:39:27;16.80;99.90
3086;DHT22;52812;48.960;9.108;2022-08-11T05:42:13;17.30;99.90
3086;DHT22;52812;48.960;9.108;2022-08-11T05:45:14;17.70;99.90
3086;DHT22;52812;48.960;9.108;2022-08-11T05:47:59;18.50;99.90
3086;DHT22;52812;48.960;9.108;2022-08-11T05:50:52;19.10;99.90
3086;DHT22;52812;48.960;9.108;2022-08-11T05:53:53;19.60;99.90
3086;DHT22;52812;48.960;9.108;2022-08-11T05:56:49;20.10;99.90
3086;DHT22;52812;48.960;9.108;2022-08-11T05:59:18;20.40;99.90
3086;DHT22;52812;48.960;9.108;2022-08-11T06:01:46;20.90;99.90
3086;DHT22;52812;48.960;9.108;2022-08-11T06:04:23;21.50;98.60
3086;DHT22;52812;48.960;9.108;2022-08-11T06:07:02;21.70;98.10
3086;DHT22;52812;48.960;9.108;2022-08-11T06:09:35;22.10;97.30
3086;DHT22;52812;48.960;9.108;2022-08-11T06:12:16;22.70;95.70
3086;DHT22;52812;48.960;9.108;2022-08-11T06:14:43;23.00;94.80
3086;DHT22;52812;48.960;9.108;2022-08-11T06:17:11;22.90;94.80
3086;DHT22;52812;48.960;9.108;2022-08-11T06:19:41;23.50;93.80
3086;DHT22;52812;48.960;9.108;2022-08-11T06:22:11;23.60;93.80
3086;DHT22;52812;48.960;9.108;2022-08-11T06:24:41;23.60;94.00
3086;DHT22;52812;48.960;9.108;2022-08-11T06:27:19;24.00;93.40
3086;DHT22;52812;48.960;9.108;2022-08-11T06:29:49;24.30;93.10
3086;DHT22;52812;48.960;9.108;2022-08-11T06:32:15;24.50;92.70
3086;DHT22;52812;48.960;9.108;2022-08-11T06:38:08;24.80;91.40
3086;DHT22;52812;48.960;9.108;2022-08-11T06:40:47;25.20;91.00
3086;DHT22;52812;48.960;9.108;2022-08-11T06:46:37;26.00;90.00
3086;DHT22;52812;48.960;9.108;2022-08-11T06:49:15;26.20;88.90
3086;DHT22;52812;48.960;9.108;2022-08-11T06:52:03;26.50;87.50
3086;DHT22;52812;48.960;9.108;2022-08-11T06:54:33;26.60;87.60
3086;DHT22;52812;48.960;9.108;2022-08-11T06:56:59;27.00;85.10
3086;DHT22;52812;48.960;9.108;2022-08-11T06:59:45;26.90;85.90
3086;DHT22;52812;48.960;9.108;2022-08-11T07:02:36;27.20;85.30
3086;DHT22;52812;48.960;9.108;2022-08-11T07:05:10;27.50;84.70
3086;DHT22;52812;48.960;9.108;2022-08-11T07:13:51;28.00;82.30
3086;DHT22;52812;48.960;9.108;2022-08-11T07:16:40;28.40;80.90
3086;DHT22;52812;48.960;9.108;2022-08-11T07:19:07;28.20;82.80
3086;DHT22;52812;48.960;9.108;2022-08-11T07:21:54;28.40;78.90
3086;DHT22;52812;48.960;9.108;2022-08-11T07:24:41;28.20;79.10
3086;DHT22;52812;48.960;9.108;2022-08-11T07:27:36;28.40;79.20
3086;DHT22;52812;48.960;9.108;2022-08-11T07:30:25;28.10;79.10
3086;DHT22;52812;48.960;9.108;2022-08-11T07:32:54;28.00;78.50
3086;DHT22;52812;48.960;9.108;2022-08-11T07:35:25;28.10;77.50
3086;DHT22;52812;48.960;9.108;2022-08-11T07:37:57;27.90;78.00
3086;DHT22;52812;48.960;9.108;2022-08-11T07:40:24;27.70;77.50
3086;DHT22;52812;48.960;9.108;2022-08-11T07:42:51;28.10;78.20
3086;DHT22;52812;48.960;9.108;2022-08-11T07:45:18;28.20;77.90
3086;DHT22;52812;48.960;9.108;2022-08-11T07:48:02;27.80;77.40
3086;DHT22;52812;48.960;9.108;2022-08-11T07:50:48;27.90;77.40
3086;DHT22;52812;48.960;9.108;2022-08-11T07:53:33;28.10;77.40
3086;DHT22;52812;48.960;9.108;2022-08-11T07:56:01;28.30;76.10
3086;DHT22;52812;48.960;9.108;2022-08-11T07:58:30;28.40;76.00
3086;DHT22;52812;48.960;9.108;2022-08-11T08:01:23;28.40;76.90
3086;DHT22;52812;48.960;9.108;2022-08-11T08:04:10;28.20;75.80
3086;DHT22;52812;48.960;9.108;2022-08-11T08:06:56;28.60;78.30
3086;DHT22;52812;48.960;9.108;2022-08-11T08:09:42;28.60;75.70
3086;DHT22;52812;48.960;9.108;2022-08-11T08:12:28;28.80;76.00
3086;DHT22;52812;48.960;9.108;2022-08-11T08:15:14;28.10;75.40
3086;DHT22;52812;48.960;9.108;2022-08-11T08:18:01;27.70;76.50
3086;DHT22;52812;48.960;9.108;2022-08-11T08:20:35;27.20;77.70
3086;DHT22;52812;48.960;9.108;2022-08-11T08:23:02;26.80;78.00
3086;DHT22;52812;48.960;9.108;2022-08-11T08:25:39;26.50;78.70
3086;DHT22;52812;48.960;9.108;2022-08-11T08:28:15;26.30;78.50
3086;DHT22;52812;48.960;9.108;2022-08-11T08:30:42;26.30;78.20
3086;DHT22;52812;48.960;9.108;2022-08-11T08:33:26;27.00;77.70
3086;DHT22;52812;48.960;9.108;2022-08-11T08:35:56;27.00;77.20
3086;DHT22;52812;48.960;9.108;2022-08-11T08:38:51;27.10;76.60
3086;DHT22;52812;48.960;9.108;2022-08-11T08:41:25;27.40;77.20
3086;DHT22;52812;48.960;9.108;2022-08-11T08:43:57;27.30;76.60
3086;DHT22;52812;48.960;9.108;2022-08-11T08:46:31;27.50;75.70
3086;DHT22;52812;48.960;9.108;2022-08-11T08:49:01;28.00;75.70
3086;DHT22;52812;48.960;9.108;2022-08-11T08:51:28;27.80;75.10
3086;DHT22;52812;48.960;9.108;2022-08-11T08:54:11;27.50;75.20
3086;DHT22;52812;48.960;9.108;2022-08-11T08:56:40;27.50;74.90
3086;DHT22;52812;48.960;9.108;2022-08-11T08:59:08;27.20;74.10
3086;DHT22;52812;48.960;9.108;2022-08-11T09:01:57;26.90;73.80
3086;DHT22;52812;48.960;9.108;2022-08-11T09:04:24;26.70;73.50
3086;DHT22;52812;48.960;9.108;2022-08-11T09:06:52;26.50;73.90
3086;DHT22;52812;48.960;9.108;2022-08-11T09:09:19;26.60;74.00
3086;DHT22;52812;48.960;9.108;2022-08-11T09:11:47;26.70;73.80
3086;DHT22;52812;48.960;9.108;2022-08-11T09:16:49;26.90;72.10
3086;DHT22;52812;48.960;9.108;2022-08-11T09:19:18;26.90;72.00
3086;DHT22;52812;48.960;9.108;2022-08-11T09:21:49;26.90;72.80
3086;DHT22;52812;48.960;9.108;2022-08-11T09:24:35;26.90;72.80
3086;DHT22;52812;48.960;9.108;2022-08-11T09:27:21;26.60;72.60
3086;DHT22;52812;48.960;9.108;2022-08-11T09:29:47;26.90;73.00
3086;DHT22;52812;48.960;9.108;2022-08-11T09:32:19;26.90;71.60
3086;DHT22;52812;48.960;9.108;2022-08-11T09:34:45;27.10;72.60
3086;DHT22;52812;48.960;9.108;2022-08-11T09:37:12;27.50;72.10
3086;DHT22;52812;48.960;9.108;2022-08-11T09:39:56;27.20;71.30
3086;DHT22;52812;48.960;9.108;2022-08-11T09:42:42;27.00;71.10
3086;DHT22;52812;48.960;9.108;2022-08-11T09:45:27;26.80;70.20
3086;DHT22;52812;48.960;9.108;2022-08-11T09:47:53;26.90;70.90
3086;DHT22;52812;48.960;9.108;2022-08-11T09:50:19;27.20;70.50
3086;DHT22;52812;48.960;9.108;2022-08-11T09:52:46;27.30;69.90
3086;DHT22;52812;48.960;9.108;2022-08-11T09:55:15;27.50;69.30
3086;DHT22;52812;48.960;9.108;2022-08-11T09:57:47;27.80;70.10
3086;DHT22;52812;48.960;9.108;2022-08-11T10:00:33;27.20;70.10
3086;DHT22;52812;48.960;9.108;2022-08-11T10:05:39;27.10;68.60
3086;DHT22;52812;48.960;9.108;2022-08-11T10:08:29;27.10;67.30
3086;DHT22;52812;48.960;9.108;2022-08-11T10:10:56;27.30;68.40
3086;DHT22;52812;48.960;9.108;2022-08-11T10:13:28;27.20;67.70
3086;DHT22;52812;48.960;9.108;2022-08-11T10:16:00;27.30;67.30
3086;DHT22;52812;48.960;9.108;2022-08-11T10:18:34;27.50;67.90
3086;DHT22;52812;48.960;9.108;2022-08-11T10:21:13;27.30;65.90
3086;DHT22;52812;48.960;9.108;2022-08-11T10:23:39;27.40;67.80
3086;DHT22;52812;48.960;9.108;2022-08-11T10:26:27;27.30;68.00
3086;DHT22;52812;48.960;9.108;2022-08-11T10:29:13;27.60;68.60
3086;DHT22;52812;48.960;9.108;2022-08-11T10:31:58;27.60;68.40
3086;DHT22;52812;48.960;9.108;2022-08-11T10:34:43;27.90;69.20
3086;DHT22;52812;48.960;9.108;2022-08-11T10:37:10;27.80;68.20
3086;DHT22;52812;48.960;9.108;2022-08-11T10:39:38;28.00;66.80
3086;DHT22;52812;48.960;9.108;2022-08-11T10:42:04;28.00;67.00
3086;DHT22;52812;48.960;9.108;2022-08-11T10:44:56;27.80;67.00
3086;DHT22;52812;48.960;9.108;2022-08-11T10:47:22;28.10;67.30
3086;DHT22;52812;48.960;9.108;2022-08-11T10:50:09;28.00;66.40
3086;DHT22;52812;48.960;9.108;2022-08-11T10:52:54;27.80;66.20
3086;DHT22;52812;48.960;9.108;2022-08-11T10:55:42;27.90;67.30
3086;DHT22;52812;48.960;9.108;2022-08-11T10:58:26;28.00;65.90
3086;DHT22;52812;48.960;9.108;2022-08-11T11:01:11;28.10;66.40
3086;DHT22;52812;48.960;9.108;2022-08-11T11:03:39;28.00;65.10
3086;DHT22;52812;48.960;9.108;2022-08-11T11:06:27;28.00;66.00
3086;DHT22;52812;48.960;9.108;2022-08-11T11:09:02;28.10;65.60
3086;DHT22;52812;48.960;9.108;2022-08-11T11:11:32;27.80;66.00
3086;DHT22;52812;48.960;9.108;2022-08-11T11:14:19;27.70;67.10
3086;DHT22;52812;48.960;9.108;2022-08-11T11:17:05;27.80;67.30
3086;DHT22;52812;48.960;9.108;2022-08-11T11:19:37;28.00;66.40
3086;DHT22;52812;48.960;9.108;2022-08-11T11:22:04;28.10;65.20
3086;DHT22;52812;48.960;9.108;2022-08-11T11:25:07;27.70;65.00
3086;DHT22;52812;48.960;9.108;2022-08-11T11:30:19;27.80;65.60
3086;DHT22;52812;48.960;9.108;2022-08-11T11:33:00;27.90;64.70
3086;DHT22;52812;48.960;9.108;2022-08-11T11:38:19;27.90;66.90
3086;DHT22;52812;48.960;9.108;2022-08-11T11:40:46;28.10;65.60
3086;DHT22;52812;48.960;9.108;2022-08-11T11:43:32;28.20;65.00
3086;DHT22;52812;48.960;9.108;2022-08-11T11:45:59;28.20;64.70
3086;DHT22;52812;48.960;9.108;2022-08-11T11:48:26;28.20;65.20
3086;DHT22;52812;48.960;9.108;2022-08-11T11:50:54;28.20;64.80
3086;DHT22;52812;48.960;9.108;2022-08-11T11:53:20;28.20;63.50
3086;DHT22;52812;48.960;9.108;2022-08-11T11:55:47;28.20;63.90
3086;DHT22;52812;48.960;9.108;2022-08-11T11:58:13;28.20;62.80
3086;DHT22;52812;48.960;9.108;2022-08-11T12:00:57;28.30;62.70
3086;DHT22;52812;48.960;9.108;2022-08-11T12:03:48;28.30;64.00
3086;DHT22;52812;48.960;9.108;2022-08-11T12:06:16;28.30;63.20
3086;DHT22;52812;48.960;9.108;2022-08-11T12:08:43;28.20;62.40
3086;DHT22;52812;48.960;9.108;2022-08-11T12:11:12;28.20;62.00
3086;DHT22;52812;48.960;9.108;2022-08-11T12:14:01;28.10;62.50
3086;DHT22;52812;48.960;9.108;2022-08-11T12:16:27;28.20;63.40
3086;DHT22;52812;48.960;9.108;2022-08-11T12:18:56;28.30;61.40
3086;DHT22;52812;48.960;9.108;2022-08-11T12:21:24;28.40;62.80
3086;DHT22;52812;48.960;9.108;2022-08-11T12:23:50;28.40;62.30
3086;DHT22;52812;48.960;9.108;2022-08-11T12:26:35;28.40;61.20
3086;DHT22;52812;48.960;9.108;2022-08-11T12:29:22;28.40;61.80
3086;DHT22;52812;48.960;9.108;2022-08-11T12:31:53;28.40;62.00
3086;DHT22;52812;48.960;9.108;2022-08-11T12:34:19;28.40;61.00
3086;DHT22;52812;48.960;9.108;2022-08-11T12:36:54;28.30;62.20
3086;DHT22;52812;48.960;9.108;2022-08-11T12:39:22;28.40;60.90
3086;DHT22;52812;48.960;9.108;2022-08-11T12:42:13;28.30;61.80
3086;DHT22;52812;48.960;9.108;2022-08-11T12:44:59;28.40;61.40
3086;DHT22;52812;48.960;9.108;2022-08-11T12:47:48;28.60;61.20
3086;DHT22;52812;48.960;9.108;2022-08-11T12:50:34;28.60;60.00
3086;DHT22;52812;48.960;9.108;2022-08-11T12:53:26;28.50;61.40
3086;DHT22;52812;48.960;9.108;2022-08-11T12:55:55;28.40;59.80
3086;DHT22;52812;48.960;9.108;2022-08-11T12:58:41;28.50;60.70
3086;DHT22;52812;48.960;9.108;2022-08-11T13:01:09;28.60;60.00
3086;DHT22;52812;48.960;9.108;2022-08-11T13:03:54;28.40;60.50
3086;DHT22;52812;48.960;9.108;2022-08-11T13:06:40;28.60;60.80
3086;DHT22;52812;48.960;9.108;2022-08-11T13:09:06;28.80;60.40
3086;DHT22;52812;48.960;9.108;2022-08-11T13:11:33;28.90;60.50
3086;DHT22;52812;48.960;9.108;2022-08-11T13:14:19;28.80;59.40
3086;DHT22;52812;48.960;9.108;2022-08-11T13:16:45;28.90;60.30
3086;DHT22;52812;48.960;9.108;2022-08-11T13:19:31;28.90;59.60
3086;DHT22;52812;48.960;9.108;2022-08-11T13:21:57;28.80;58.70
3086;DHT22;52812;48.960;9.108;2022-08-11T13:24:25;28.90;59.40
3086;DHT22;52812;48.960;9.108;2022-08-11T13:26:53;29.00;59.00
3086;DHT22;52812;48.960;9.108;2022-08-11T13:29:27;28.90;58.70
3086;DHT22;52812;48.960;9.108;2022-08-11T13:31:56;28.90;58.90
3086;DHT22;52812;48.960;9.108;2022-08-11T13:34:26;29.10;59.70
3086;DHT22;52812;48.960;9.108;2022-08-11T13:36:55;28.70;58.30
3086;DHT22;52812;48.960;9.108;2022-08-11T13:39:24;28.60;59.50
3086;DHT22;52812;48.960;9.108;2022-08-11T13:41:55;28.80;59.70
3086;DHT22;52812;48.960;9.108;2022-08-11T13:44:24;29.00;60.10
3086;DHT22;52812;48.960;9.108;2022-08-11T13:46:53;29.00;58.60
3086;DHT22;52812;48.960;9.108;2022-08-11T13:49:21;28.90;58.80
3086;DHT22;52812;48.960;9.108;2022-08-11T13:51:47;28.90;58.90
3086;DHT22;52812;48.960;9.108;2022-08-11T13:54:19;28.90;57.90
3086;DHT22;52812;48.960;9.108;2022-08-11T13:56:49;29.00;58.50
3086;DHT22;52812;48.960;9.108;2022-08-11T13:59:18;29.00;57.70
3086;DHT22;52812;48.960;9.108;2022-08-11T14:01:51;28.90;57.90
3086;DHT22;52812;48.960;9.108;2022-08-11T14:04:25;28.90;58.50
3086;DHT22;52812;48.960;9.108;2022-08-11T14:06:52;28.80;58.30
3086;DHT22;52812;48.960;9.108;2022-08-11T14:09:28;28.90;58.10
3086;DHT22;52812;48.960;9.108;2022-08-11T14:12:02;28.90;58.40
3086;DHT22;52812;48.960;9.108;2022-08-11T14:14:48;28.90;58.30
3086;DHT22;52812;48.960;9.108;2022-08-11T14:17:16;28.80;57.60
3086;DHT22;52812;48.960;9.108;2022-08-11T14:19:46;28.60;57.60
3086;DHT22;52812;48.960;9.108;2022-08-11T14:22:12;28.60;57.70
3086;DHT22;52812;48.960;9.108;2022-08-11T14:24:42;28.70;58.40
3086;DHT22;52812;48.960;9.108;2022-08-11T14:27:15;28.90;58.00
3086;DHT22;52812;48.960;9.108;2022-08-11T14:29:41;28.90;57.60
3086;DHT22;52812;48.960;9.108;2022-08-11T14:32:10;29.00;57.90
3086;DHT22;52812;48.960;9.108;2022-08-11T14:34:40;29.00;58.40
3086;DHT22;52812;48.960;9.108;2022-08-11T14:37:08;28.90;57.70
3086;DHT22;52812;48.960;9.108;2022-08-11T14:39:46;29.00;56.90
3086;DHT22;52812;48.960;9.108;2022-08-11T14:42:15;28.90;57.70
3086;DHT22;52812;48.960;9.108;2022-08-11T14:45:04;29.00;57.20
3086;DHT22;52812;48.960;9.108;2022-08-11T14:47:51;29.00;56.80
3086;DHT22;52812;48.960;9.108;2022-08-11T14:50:20;29.10;56.90
3086;DHT22;52812;48.960;9.108;2022-08-11T14:52:52;29.10;56.30
3086;DHT22;52812;48.960;9.108;2022-08-11T14:55:21;28.90;56.80
3086;DHT22;52812;48.960;9.108;2022-08-11T14:58:12;28.90;56.50
3086;DHT22;52812;48.960;9.108;2022-08-11T15:00:40;29.00;56.20
3086;DHT22;52812;48.960;9.108;2022-08-11T15:03:07;28.90;56.70
3086;DHT22;52812;48.960;9.108;2022-08-11T15:05:35;28.90;56.30
3086;DHT22;52812;48.960;9.108;2022-08-11T15:08:04;28.90;57.00
3086;DHT22;52812;48.960;9.108;2022-08-11T15:10:31;29.00;56.10
3086;DHT22;52812;48.960;9.108;2022-08-11T15:12:57;28.90;56.50
3086;DHT22;52812;48.960;9.108;2022-08-11T15:15:24;28.90;56.10
3086;DHT22;52812;48.960;9.108;2022-08-11T15:18:12;28.90;56.00
3086;DHT22;52812;48.960;9.108;2022-08-11T15:20:40;28.80;55.70
3086;DHT22;52812;48.960;9.108;2022-08-11T15:23:24;28.80;56.00
3086;DHT22;52812;48.960;9.108;2022-08-11T15:26:17;28.90;56.20
3086;DHT22;52812;48.960;9.108;2022-08-11T15:28:48;28.90;55.90
3086;DHT22;52812;48.960;9.108;2022-08-11T15:31:35;29.00;57.00
3086;DHT22;52812;48.960;9.108;2022-08-11T15:34:24;29.10;56.90
3086;DHT22;52812;48.960;9.108;2022-08-11T15:37:14;29.00;56.00
3086;DHT22;52812;48.960;9.108;2022-08-11T15:40:18;28.90;56.40
3086;DHT22;52812;48.960;9.108;2022-08-11T15:43:20;28.80;56.10
3086;DHT22;52812;48.960;9.108;2022-08-11T15:46:16;28.80;56.20
3086;DHT22;52812;48.960;9.108;2022-08-11T15:48:47;28.90;55.90
3086;DHT22;52812;48.960;9.108;2022-08-11T15:51:17;28.90;56.00
3086;DHT22;52812;48.960;9.108;2022-08-11T15:53:53;29.00;55.80
3086;DHT22;52812;48.960;9.108;2022-08-11T15:56:23;29.00;55.60
3086;DHT22;52812;48.960;9.108;2022-08-11T15:58:51;29.00;54.70
3086;DHT22;52812;48.960;9.108;2022-08-11T16:01:39;28.90;55.20
3086;DHT22;52812;48.960;9.108;2022-08-11T16:04:25;28.90;56.00
3086;DHT22;52812;48.960;9.108;2022-08-11T16:07:19;28.90;55.10
3086;DHT22;52812;48.960;9.108;2022-08-11T16:09:50;28.90;54.80
3086;DHT22;52812;48.960;9.108;2022-08-11T16:12:22;28.80;55.90
3086;DHT22;52812;48.960;9.108;2022-08-11T16:14:51;28.90;55.60
3086;DHT22;52812;48.960;9.108;2022-08-11T16:17:51;28.80;55.80
3086;DHT22;52812;48.960;9.108;2022-08-11T16:20:23;28.80;56.70
3086;DHT22;52812;48.960;9.108;2022-08-11T16:22:55;28.80;55.90
3086;DHT22;52812;48.960;9.108;2022-08-11T16:25:23;28.80;56.20
3086;DHT22;52812;48.960;9.108;2022-08-11T16:27:52;28.70;56.70
3086;DHT22;52812;48.960;9.108;2022-08-11T16:30:19;28.70;56.00
3086;DHT22;52812;48.960;9.108;2022-08-11T16:32:48;28.60;56.70
3086;DHT22;52812;48.960;9.108;2022-08-11T16:35:20;28.60;56.70
3086;DHT22;52812;48.960;9.108;2022-08-11T16:38:07;28.60;56.70
3086;DHT22;52812;48.960;9.108;2022-08-11T16:40:53;28.60;56.70
3086;DHT22;52812;48.960;9.108;2022-08-11T16:43:22;28.60;56.90
3086;DHT22;52812;48.960;9.108;2022-08-11T16:46:07;28.60;56.50
3086;DHT22;52812;48.960;9.108;2022-08-11T16:48:53;28.60;56.90
3086;DHT22;52812;48.960;9.108;2022-08-11T16:51:20;28.60;57.20
3086;DHT22;52812;48.960;9.108;2022-08-11T16:53:47;28.60;57.30
3086;DHT22;52812;48.960;9.108;2022-08-11T16:56:49;28.50;57.70
3086;DHT22;52812;48.960;9.108;2022-08-11T16:59:26;28.50;57.30
3086;DHT22;52812;48.960;9.108;2022-08-11T17:01:59;28.40;57.60
3086;DHT22;52812;48.960;9.108;2022-08-11T17:04:50;28.40;57.60
3086;DHT22;52812;48.960;9.108;2022-08-11T17:07:37;28.30;58.00
3086;DHT22;52812;48.960;9.108;2022-08-11T17:10:36;28.30;57.80
3086;DHT22;52812;48.960;9.108;2022-08-11T17:13:27;28.30;57.50
3086;DHT22;52812;48.960;9.108;2022-08-11T17:15:57;28.30;56.90
3086;DHT22;52812;48.960;9.108;2022-08-11T17:21:43;28.20;57.10
3086;DHT22;52812;48.960;9.108;2022-08-11T17:24:31;28.20;57.30
3086;DHT22;52812;48.960;9.108;2022-08-11T17:26:58;28.20;57.40
3086;DHT22;52812;48.960;9.108;2022-08-11T17:29:32;28.10;57.40
3086;DHT22;52812;48.960;9.108;2022-08-11T17:32:00;28.10;57.30
3086;DHT22;52812;48.960;9.108;2022-08-11T17:34:49;28.00;57.60
3086;DHT22;52812;48.960;9.108;2022-08-11T17:37:35;28.00;57.60
3086;DHT22;52812;48.960;9.108;2022-08-11T17:40:07;27.90;57.70
3086;DHT22;52812;48.960;9.108;2022-08-11T17:42:34;27.90;57.60
3086;DHT22;52812;48.960;9.108;2022-08-11T17:45:20;27.90;57.70
3086;DHT22;52812;48.960;9.108;2022-08-11T17:48:05;27.80;57.80
3086;DHT22;52812;48.960;9.108;2022-08-11T17:50:52;27.80;57.90
3086;DHT22;52812;48.960;9.108;2022-08-11T17:53:18;27.80;57.60
3086;DHT22;52812;48.960;9.108;2022-08-11T17:56:12;27.80;57.50
3086;DHT22;52812;48.960;9.108;2022-08-11T17:58:59;27.70;57.50
3086;DHT22;52812;48.960;9.108;2022-08-11T18:01:46;27.60;57.70
3086;DHT22;52812;48.960;9.108;2022-08-11T18:04:14;27.40;58.80
3086;DHT22;52812;48.960;9.108;2022-08-11T18:06:41;27.30;58.70
3086;DHT22;52812;48.960;9.108;2022-08-11T18:09:10;27.20;58.40
3086;DHT22;52812;48.960;9.108;2022-08-11T18:11:56;27.20;58.50
3086;DHT22;52812;48.960;9.108;2022-08-11T18:14:46;27.10;58.90
3086;DHT22;52812;48.960;9.108;2022-08-11T18:17:31;27.10;58.30
3086;DHT22;52812;48.960;9.108;2022-08-11T18:20:16;27.00;58.70
3086;DHT22;52812;48.960;9.108;2022-08-11T18:23:03;26.80;58.90
3086;DHT22;52812;48.960;9.108;2022-08-11T18:25:49;26.70;59.10
3086;DHT22;52812;48.960;9.108;2022-08-11T18:28:49;26.60;59.20
3086;DHT22;52812;48.960;9.108;2022-08-11T18:31:37;26.50;59.30
3086;DHT22;52812;48.960;9.108;2022-08-11T18:34:31;26.40;59.30
3086;DHT22;52812;48.960;9.108;2022-08-11T18:37:18;26.30;59.70
3086;DHT22;52812;48.960;9.108;2022-08-11T18:40:21;26.20;60.00
3086;DHT22;52812;48.960;9.108;2022-08-11T18:43:09;26.00;60.80
3086;DHT22;52812;48.960;9.108;2022-08-11T18:46:00;25.80;61.40
3086;DHT22;52812;48.960;9.108;2022-08-11T18:48:48;25.70;62.00
3086;DHT22;52812;48.960;9.108;2022-08-11T18:51:32;25.60;62.50
3086;DHT22;52812;48.960;9.108;2022-08-11T18:54:20;25.60;62.90
3086;DHT22;52812;48.960;9.108;2022-08-11T18:57:05;25.60;63.10
3086;DHT22;52812;48.960;9.108;2022-08-11T18:59:51;25.60;63.20
3086;DHT22;52812;48.960;9.108;2022-08-11T19:02:38;25.50;63.30
3086;DHT22;52812;48.960;9.108;2022-08-11T19:05:22;25.40;63.70
3086;DHT22;52812;48.960;9.108;2022-08-11T19:08:08;25.30;63.80
3086;DHT22;52812;48.960;9.108;2022-08-11T19:10:54;25.30;64.20
3086;DHT22;52812;48.960;9.108;2022-08-11T19:13:40;25.20;64.40
3086;DHT22;52812;48.960;9.108;2022-08-11T19:16:26;25.00;64.40
3086;DHT22;52812;48.960;9.108;2022-08-11T19:19:13;25.00;64.40
3086;DHT22;52812;48.960;9.108;2022-08-11T19:22:01;24.90;64.70
3086;DHT22;52812;48.960;9.108;2022-08-11T19:24:46;24.90;64.50
3086;DHT22;52812;48.960;9.108;2022-08-11T19:27:31;24.90;64.30
3086;DHT22;52812;48.960;9.108;2022-08-11T19:30:16;24.80;64.40
3086;DHT22;52812;48.960;9.108;2022-08-11T19:33:01;24.90;63.90
3086;DHT22;52812;48.960;9.108;2022-08-11T19:35:46;25.00;63.40
3086;DHT22;52812;48.960;9.108;2022-08-11T19:38:32;25.00;63.30
3086;DHT22;52812;48.960;9.108;2022-08-11T19:41:17;25.10;63.10
3086;DHT22;52812;48.960;9.108;2022-08-11T19:44:03;25.20;62.70
3086;DHT22;52812;48.960;9.108;2022-08-11T19:46:49;25.20;62.50
3086;DHT22;52812;48.960;9.108;2022-08-11T19:49:34;25.20;62.70
3086;DHT22;52812;48.960;9.108;2022-08-11T19:52:18;25.10;62.70
3086;DHT22;52812;48.960;9.108;2022-08-11T19:55:05;25.00;62.60
3086;DHT22;52812;48.960;9.108;2022-08-11T19:57:50;25.00;62.80
3086;DHT22;52812;48.960;9.108;2022-08-11T20:00:35;25.00;62.70